Time;durP1;ratioP1;P1;durP2;ratioP2;P2;SDS_P1;SDS_P2;PMS_P1;PMS_P2;Temp;Humidity;BMP_temperature;BMP_pressure;BME280_temperature;BME280_humidity;BME280_pressure;Samples;Min_cycle;Max_cycle;Signal;HPM_P1;HPM_P2
2022/06/13 00:04:38;;;;;;;8.88;1.48;;;;;;;20.77;51.55;100572.72;20832374;28;20494;-64
2022/06/13 00:14:40;;;;;;;4.90;1.38;;;;;;;20.56;52.29;100560.63;20832311;28;20075;-65
2022/06/13 00:24:41;;;;;;;7.03;1.55;;;;;;;20.39;53.62;100583.63;20831320;28;20112;-66
2022/06/13 00:34:43;;;;;;;6.10;1.48;;;;;;;20.28;55.91;100593.97;20829902;28;20053;-68
2022/06/13 00:45:12;;;;;;;4.43;1.30;;;;;;;20.01;59.08;100596.25;20829685;28;20053;-66
2022/06/13 00:55:20;;;;;;;4.72;1.63;;;;;;;19.82;63.48;100592.84;20828348;28;20049;-66
2022/06/13 01:05:29;;;;;;;4.68;1.55;;;;;;;19.67;64.03;100592.66;20827196;28;20084;-68
2022/06/13 01:15:48;;;;;;;8.23;1.80;;;;;;;19.51;62.33;100602.31;20827146;28;20053;-67
2022/06/13 01:25:59;;;;;;;7.15;1.85;;;;;;;19.46;61.90;100614.97;20825619;28;20053;-68
2022/06/13 01:36:16;;;;;;;6.50;1.88;;;;;;;19.45;62.31;100610.56;20824455;28;20053;-66
2022/06/13 01:46:21;;;;;;;6.40;1.70;;;;;;;19.32;58.98;100617.44;20825314;28;20107;-66
2022/06/13 01:56:29;;;;;;;7.43;2.10;;;;;;;19.06;61.79;100606.25;20824007;28;20516;-66
2022/06/13 02:06:35;;;;;;;9.15;1.90;;;;;;;18.76;65.14;100613.00;20823404;28;20711;-66
2022/06/13 02:16:47;;;;;;;7.63;1.83;;;;;;;18.39;69.53;100611.97;20786324;28;20068;-66
2022/06/13 02:26:54;;;;;;;6.47;1.80;;;;;;;18.05;70.73;100613.47;20739290;28;20506;-66
2022/06/13 02:37:15;;;;;;;8.38;1.92;;;;;;;17.79;73.35;100621.69;20739005;28;20065;-67
2022/06/13 02:47:31;;;;;;;8.07;2.20;;;;;;;17.54;75.10;100603.28;20739886;28;20491;-66
2022/06/13 02:58:02;;;;;;;8.95;2.10;;;;;;;17.30;76.30;100626.31;20738291;28;20454;-67
2022/06/13 03:08:25;;;;;;;11.35;2.40;;;;;;;17.01;77.85;100635.34;20736816;28;20060;-66
2022/06/13 03:18:31;;;;;;;6.97;1.75;;;;;;;16.93;78.16;100649.75;20736732;28;20057;-64
2022/06/13 03:28:41;;;;;;;6.55;2.17;;;;;;;16.86;80.27;100664.16;20736143;28;20474;-64
2022/06/13 03:39:13;;;;;;;7.13;2.20;;;;;;;16.57;83.96;100680.16;20735598;28;20041;-64
2022/06/13 03:49:22;;;;;;;7.80;2.10;;;;;;;16.06;88.85;100703.06;20735865;28;20061;-64
2022/06/13 03:59:30;;;;;;;7.38;2.22;;;;;;;16.14;87.02;100710.72;20735261;28;20038;-64
2022/06/13 04:10:04;;;;;;;8.60;2.05;;;;;;;16.16;88.48;100699.19;20734658;28;20057;-64
2022/06/13 04:20:22;;;;;;;6.07;2.38;;;;;;;16.28;89.47;100702.31;20734126;28;20537;-63
2022/06/13 04:30:27;;;;;;;7.20;2.17;;;;;;;16.73;87.26;100712.25;20732505;28;20046;-64
2022/06/13 04:40:30;;;;;;;7.35;2.38;;;;;;;18.73;71.82;100713.94;20732358;28;20050;-64
2022/06/13 04:50:39;;;;;;;5.60;2.03;;;;;;;17.55;76.74;100725.00;20747538;28;20054;-64
2022/06/13 05:00:42;;;;;;;6.72;2.00;;;;;;;17.21;82.27;100737.81;20746337;28;20046;-67
2022/06/13 05:10:47;;;;;;;6.50;2.20;;;;;;;17.13;83.30;100767.19;20746916;28;20054;-67
2022/06/13 05:21:27;;;;;;;8.50;2.42;;;;;;;17.00;84.40;100774.69;20745415;28;20054;-66
2022/06/13 05:31:29;;;;;;;9.23;2.50;;;;;;;17.15;85.03;100787.41;20540974;28;20050;-66
2022/06/13 05:41:31;;;;;;;11.70;2.83;;;;;;;17.41;83.56;100793.50;20744695;28;20050;-63
2022/06/13 05:51:32;;;;;;;11.68;2.50;;;;;;;17.82;81.05;100799.00;20742546;28;20108;-62
2022/06/13 06:01:38;;;;;;;10.38;2.90;;;;;;;17.85;80.65;100804.19;20741700;28;20046;-64
2022/06/13 06:11:40;;;;;;;8.50;2.90;;;;;;;17.74;75.42;100809.06;20741011;28;20104;-65
2022/06/13 06:21:41;;;;;;;9.75;2.75;;;;;;;18.09;73.31;100818.25;20740646;28;20046;-64
2022/06/13 06:31:43;;;;;;;9.55;2.35;;;;;;;18.21;69.51;100817.78;20739500;28;20046;-65
2022/06/13 06:41:46;;;;;;;8.38;2.20;;;;;;;18.26;65.85;100823.75;20738517;28;20491;-64
2022/06/13 06:51:48;;;;;;;10.65;2.45;;;;;;;18.53;62.99;100828.81;20745635;28;20069;-64
2022/06/13 07:01:50;;;;;;;7.47;2.45;;;;;;;18.77;61.93;100826.94;20765151;28;20049;-64
2022/06/13 07:11:55;;;;;;;12.82;2.15;;;;;;;18.82;60.88;100824.97;20764553;28;20144;-63
2022/06/13 07:21:57;;;;;;;8.85;2.35;;;;;;;18.98;60.83;100825.19;20784649;28;20136;-66
2022/06/13 07:32:06;;;;;;;8.77;2.10;;;;;;;19.45;58.45;100836.31;20809533;28;20127;-64
2022/06/13 07:42:08;;;;;;;7.95;2.70;;;;;;;19.65;56.22;100831.00;20752859;28;20050;-65
2022/06/13 07:52:09;;;;;;;7.38;2.40;;;;;;;19.72;56.41;100832.41;20727151;28;20049;-64
2022/06/13 08:02:16;;;;;;;8.30;2.35;;;;;;;20.02;55.09;100831.88;20726345;28;20077;-64
2022/06/13 08:12:20;;;;;;;9.65;2.63;;;;;;;20.06;54.38;100844.09;20751053;28;20050;-65
2022/06/13 08:22:22;;;;;;;;;;;;;;;20.44;51.06;100836.91;20820261;28;20045;-65
2022/06/13 08:32:23;;;;;;;7.32;2.30;;;;;;;20.46;51.74;100837.72;20822108;28;19921;-65
2022/06/13 08:42:33;;;;;;;7.40;2.00;;;;;;;20.54;49.35;100833.81;20822267;28;20089;-65
2022/06/13 08:52:43;;;;;;;5.35;1.70;;;;;;;21.26;49.02;100818.50;20821829;28;20049;-65
2022/06/13 09:02:52;;;;;;;6.18;1.90;;;;;;;22.01;45.03;100830.41;20819884;28;20049;-65
2022/06/13 09:13:19;;;;;;;6.63;2.08;;;;;;;21.31;42.49;100836.94;20790157;28;20479;-65
2022/06/13 09:23:30;;;;;;;5.13;1.35;;;;;;;21.86;39.73;100830.41;20737331;28;20477;-65
2022/06/13 09:33:36;;;;;;;4.53;1.55;;;;;;;22.27;36.86;100828.94;20735205;28;20046;-64
2022/06/13 09:43:46;;;;;;;3.70;1.30;;;;;;;21.96;33.83;100815.63;20735992;28;20092;-64
2022/06/13 09:54:01;;;;;;;5.00;1.48;;;;;;;22.25;36.05;100830.84;20735567;28;20088;-65
2022/06/13 10:04:37;;;;;;;4.53;1.25;;;;;;;23.14;33.47;100820.28;20734356;28;20054;-65
2022/06/13 10:15:06;;;;;;;6.88;1.48;;;;;;;22.33;35.45;100825.09;20777527;28;20045;-64
2022/06/13 10:25:22;;;;;;;5.82;1.40;;;;;;;22.38;35.69;100831.00;20812411;28;20063;-65
2022/06/13 10:35:49;;;;;;;4.65;1.30;;;;;;;22.14;34.81;100835.94;20813292;28;20056;-65
2022/06/13 10:45:51;;;;;;;4.03;1.10;;;;;;;23.62;32.21;100818.16;20808946;28;20053;-66
2022/06/13 10:55:55;;;;;;;12.13;1.52;;;;;;;24.21;31.22;100818.81;20808650;28;20053;-69
2022/06/13 11:06:01;;;;;;;4.47;1.10;;;;;;;23.64;33.02;100826.97;20810592;28;20045;-66
2022/06/13 11:37:15;;;;;;;4.47;1.50;;;;;;;23.13;34.59;100805.16;20809206;28;20416;-67
2022/06/13 11:47:18;;;;;;;5.32;1.55;;;;;;;23.69;33.29;100807.97;20809270;28;20076;-66
2022/06/13 11:57:29;;;;;;;3.97;1.27;;;;;;;24.08;29.48;100801.84;20821790;28;20049;-66
2022/06/13 12:07:31;;;;;;;6.43;1.55;;;;;;;23.80;30.89;100792.94;20824443;28;20049;-66
2022/06/13 12:17:41;;;;;;;5.00;1.38;;;;;;;23.20;33.35;100803.84;20756599;28;20108;-66
2022/06/13 12:28:03;;;;;;;4.35;1.40;;;;;;;23.72;32.43;100792.59;20741767;28;20049;-66
2022/06/13 12:38:28;;;;;;;6.63;1.50;;;;;;;24.57;31.64;100796.75;20740588;28;20522;-67
2022/06/13 12:48:46;;;;;;;4.78;1.50;;;;;;;23.64;31.38;100810.91;20740341;28;20046;-67
2022/06/13 12:59:07;;;;;;;8.43;1.55;;;;;;;24.20;29.41;100806.38;20739435;28;20422;-66
2022/06/13 13:09:31;;;;;;;8.38;1.50;;;;;;;23.65;31.39;100801.09;20736550;28;20053;-67
2022/06/13 13:19:52;;;;;;;5.30;1.52;;;;;;;23.03;31.51;100796.00;20737661;28;20134;-67
2022/06/13 13:30:15;;;;;;;6.45;1.70;;;;;;;23.56;31.49;100789.13;20735991;28;20046;-66
2022/06/13 13:40:28;;;;;;;5.53;1.45;;;;;;;23.25;34.56;100799.09;20734178;28;20461;-66
2022/06/13 13:50:34;;;;;;;4.07;1.23;;;;;;;23.22;32.40;100796.59;20732462;28;20050;-66
2022/06/13 14:01:07;;;;;;;6.05;1.75;;;;;;;23.55;32.80;100787.41;20732204;28;20108;-66
2022/06/13 14:11:11;;;;;;;4.60;1.58;;;;;;;23.22;34.12;100801.94;20746194;28;20435;-67
2022/06/13 14:21:18;;;;;;;6.50;1.83;;;;;;;23.96;31.95;100775.91;20743689;28;20077;-67
2022/06/13 14:31:20;;;;;;;5.18;1.50;;;;;;;24.40;31.32;100756.06;20731249;28;20054;-66
2022/06/13 14:41:37;;;;;;;5.07;1.60;;;;;;;24.37;28.63;100761.59;20750196;28;20042;-66
2022/06/13 14:52:11;;;;;;;4.72;1.63;;;;;;;24.96;29.04;100751.25;20811346;28;20448;-66
2022/06/13 15:02:23;;;;;;;7.47;1.88;;;;;;;24.35;30.82;100760.84;20810798;28;20045;-66
2022/06/13 15:12:29;;;;;;;4.72;1.70;;;;;;;24.12;30.36;100760.53;20810578;28;20504;-65
2022/06/13 15:22:36;;;;;;;5.97;1.65;;;;;;;23.76;32.55;100762.03;20809696;28;20045;-65
2022/06/13 15:32:38;;;;;;;5.22;1.75;;;;;;;24.08;30.45;100748.34;20808311;28;20489;-65
2022/06/13 15:42:40;;;;;;;6.28;2.13;;;;;;;24.45;29.34;100740.53;20808657;28;20053;-68
2022/06/13 15:52:43;;;;;;;5.35;1.90;;;;;;;24.46;29.65;100740.44;20809062;28;20049;-65
2022/06/13 16:02:47;;;;;;;5.87;2.07;;;;;;;24.56;30.02;100732.63;20804163;28;20096;-65
2022/06/13 16:12:53;;;;;;;4.97;1.70;;;;;;;25.49;28.62;100723.38;20804510;28;20065;-65
2022/06/13 16:23:09;;;;;;;9.43;2.55;;;;;;;24.62;29.24;100734.88;20805153;28;20208;-68
2022/06/13 16:33:18;;;;;;;8.38;2.33;;;;;;;24.32;31.23;100735.97;20802863;28;20049;-68
2022/06/13 16:43:29;;;;;;;5.93;2.20;;;;;;;23.54;33.44;100749.13;20807431;28;20576;-68
2022/06/13 16:53:32;;;;;;;8.23;2.13;;;;;;;23.09;34.56;100744.88;20812326;28;20065;-69
2022/06/13 17:03:56;;;;;;;6.63;2.03;;;;;;;23.67;33.51;100754.59;20811267;28;20120;-72
2022/06/13 17:13:58;;;;;;;5.23;1.80;;;;;;;23.43;34.77;100750.78;20775418;28;20054;-68
2022/06/13 17:24:03;;;;;;;6.78;2.35;;;;;;;23.55;35.18;100744.66;20730509;28;20079;-75
2022/06/13 17:34:20;;;;;;;5.85;2.10;;;;;;;23.70;35.29;100758.88;20795139;28;20115;-69
2022/06/13 17:44:22;;;;;;;6.25;2.20;;;;;;;23.70;36.86;100753.53;20809218;28;20053;-69
2022/06/13 17:54:24;;;;;;;6.25;2.20;;;;;;;23.95;36.25;100750.94;20815546;28;20489;-70
2022/06/13 18:04:26;;;;;;;6.72;2.28;;;;;;;23.60;36.28;100758.56;20814676;28;20058;-68
2022/06/13 18:14:28;;;;;;;9.68;2.72;;;;;;;23.26;37.54;100766.06;20769992;28;20798;-69
2022/06/13 18:24:30;;;;;;;7.30;2.10;;;;;;;22.77;38.52;100761.06;20731483;28;20050;-68
2022/06/13 18:34:32;;;;;;;9.63;3.30;;;;;;;22.48;39.64;100764.63;20729717;28;20050;-71
2022/06/13 18:44:37;;;;;;;11.40;3.80;;;;;;;21.97;40.66;100772.00;20728737;28;20045;-69
2022/06/13 18:54:38;;;;;;;9.40;3.40;;;;;;;21.59;41.49;100777.69;20730061;28;20053;-76
2022/06/13 19:04:42;;;;;;;10.40;3.58;;;;;;;21.23;43.23;100788.53;20727940;28;20061;-70
2022/06/13 19:14:51;;;;;;;10.30;3.00;;;;;;;20.99;44.19;100796.03;20771525;28;20060;-72
2022/06/13 19:24:52;;;;;;;11.25;2.80;;;;;;;20.84;46.39;100807.44;20809974;28;20053;-68
2022/06/13 19:34:59;;;;;;;12.40;3.40;;;;;;;20.30;47.39;100825.22;20807683;28;20111;-71
2022/06/13 19:45:03;;;;;;;7.60;3.28;;;;;;;19.87;48.09;100838.78;20808302;28;20056;-71
2022/06/13 19:55:15;;;;;;;13.70;3.47;;;;;;;19.81;48.29;100847.06;20808072;28;20577;-70
2022/06/13 20:05:18;;;;;;;9.52;3.58;;;;;;;19.51;48.92;100867.91;20806613;28;20053;-68
2022/06/13 20:15:20;;;;;;;10.25;3.38;;;;;;;19.24;51.87;100891.25;20785211;28;20608;-71
2022/06/13 20:25:21;;;;;;;8.90;3.25;;;;;;;18.91;53.57;100901.50;20750130;28;20053;-66
2022/06/13 20:35:24;;;;;;;7.55;3.55;;;;;;;18.82;52.55;100920.47;20840195;28;20339;-66
2022/06/13 20:45:29;;;;;;;6.97;2.90;;;;;;;18.62;52.45;100916.81;20904973;28;20509;-67
2022/06/13 20:55:31;;;;;;;10.85;3.70;;;;;;;18.37;52.62;100913.44;20906061;28;20144;-67
2022/06/13 21:05:34;;;;;;;10.57;3.50;;;;;;;18.26;52.96;100910.34;20902603;28;20069;-72
2022/06/13 21:15:39;;;;;;;9.63;3.08;;;;;;;18.06;54.41;100912.00;20857341;28;20056;-69
2022/06/13 21:25:42;;;;;;;8.95;3.28;;;;;;;17.79;59.03;100920.97;20817644;28;20060;-69
2022/06/13 21:35:45;;;;;;;7.43;3.28;;;;;;;17.39;61.58;100938.25;20818256;28;20045;-68
2022/06/13 21:45:47;;;;;;;7.70;3.15;;;;;;;17.26;60.51;100939.63;20817778;28;20119;-69
2022/06/13 21:55:48;;;;;;;10.07;3.05;;;;;;;17.04;61.84;100937.69;20816329;28;20069;-68
2022/06/13 22:05:51;;;;;;;5.97;2.95;;;;;;;16.91;63.99;100953.16;20818294;28;20137;-68
2022/06/13 22:15:53;;;;;;;11.93;3.70;;;;;;;16.52;65.16;100955.22;20820546;28;20095;-68
2022/06/13 22:25:55;;;;;;;11.27;3.85;;;;;;;16.39;66.75;100954.78;20821695;28;20081;-69
2022/06/13 22:35:57;;;;;;;8.95;3.20;;;;;;;16.04;69.23;100961.09;20820785;28;20045;-70
2022/06/13 22:45:59;;;;;;;11.18;3.42;;;;;;;15.86;70.93;100969.56;20819981;28;20046;-70
2022/06/13 22:56:01;;;;;;;8.30;3.45;;;;;;;15.66;71.68;100983.31;20818839;28;20049;-70
2022/06/13 23:06:03;;;;;;;9.20;3.22;;;;;;;15.47;72.57;100974.13;20818185;28;20049;-71
2022/06/13 23:16:05;;;;;;;12.38;3.67;;;;;;;15.37;73.17;100982.28;20818553;28;20092;-71
2022/06/13 23:26:06;;;;;;;8.85;3.03;;;;;;;15.31;73.45;100987.72;20817100;28;20053;-70
2022/06/13 23:36:09;;;;;;;8.15;3.17;;;;;;;15.20;74.63;100992.41;20816958;28;20064;-70
2022/06/13 23:46:10;;;;;;;7.53;3.20;;;;;;;14.90;77.34;100988.78;20818595;28;20049;-70
2022/06/13 23:56:12;;;;;;;10.95;3.78;;;;;;;14.81;77.23;100999.53;20843720;28;20060;-70
